createdAt,value
2016-10-13T00:00:45.926Z,964.16
2016-10-13T00:01:45.885Z,964.19
2016-10-13T00:02:45.845Z,964.23
2016-10-13T00:03:45.805Z,964.25
2016-10-13T00:04:45.765Z,964.2
2016-10-13T00:05:45.725Z,964.2
2016-10-13T00:06:45.685Z,964.2
2016-10-13T00:07:45.646Z,964.21
2016-10-13T00:08:45.604Z,964.25
2016-10-13T00:09:45.566Z,964.27
2016-10-13T00:10:45.525Z,964.32
2016-10-13T00:11:45.486Z,964.35
2016-10-13T00:12:45.445Z,964.35
2016-10-13T00:13:45.405Z,964.31
2016-10-13T00:14:45.365Z,964.3
2016-10-13T00:15:45.325Z,964.29
2016-10-13T00:16:45.287Z,964.3
2016-10-13T00:17:45.246Z,964.28
2016-10-13T00:18:45.205Z,964.28
2016-10-13T00:19:45.165Z,964.28
2016-10-13T00:20:45.126Z,964.29
2016-10-13T00:21:45.086Z,964.27
2016-10-13T00:22:45.046Z,964.32
2016-10-13T00:23:45.004Z,964.33
2016-10-13T00:24:44.967Z,964.26
2016-10-13T00:25:44.926Z,964.18
2016-10-13T00:26:44.885Z,964.23
2016-10-13T00:27:44.844Z,964.25
2016-10-13T00:28:44.804Z,964.16
2016-10-13T00:29:44.766Z,964.15
2016-10-13T00:30:44.724Z,964.13
2016-10-13T00:31:44.686Z,964.11
2016-10-13T00:32:44.644Z,964.09
2016-10-13T00:33:44.607Z,964.09
2016-10-13T00:34:44.563Z,964.06
2016-10-13T00:35:44.525Z,964.04
2016-10-13T00:36:44.485Z,964.1
2016-10-13T00:37:44.444Z,964.1
2016-10-13T00:38:44.404Z,964.11
2016-10-13T00:39:44.364Z,964.12
2016-10-13T00:40:44.324Z,964.16
2016-10-13T00:41:44.285Z,964.15
2016-10-13T00:42:44.244Z,964.14
2016-10-13T00:43:44.204Z,964.17
2016-10-13T00:44:44.164Z,964.19
2016-10-13T00:45:44.124Z,964.14
2016-10-13T00:46:44.083Z,964.17
2016-10-13T00:47:44.043Z,964.13
2016-10-13T00:48:44.002Z,964.12
2016-10-13T00:49:43.962Z,964.09
2016-10-13T00:50:43.923Z,964.08
2016-10-13T00:51:43.883Z,964.08
2016-10-13T00:52:43.842Z,964.1
2016-10-13T00:53:43.802Z,964.09
2016-10-13T00:54:43.762Z,964.05
2016-10-13T00:55:43.723Z,964.06
2016-10-13T00:56:43.683Z,964
2016-10-13T00:57:43.643Z,963.98
2016-10-13T00:58:43.602Z,963.96
2016-10-13T00:59:43.563Z,963.94
2016-10-13T01:00:43.522Z,963.96
2016-10-13T01:01:43.481Z,963.93
2016-10-13T01:02:43.442Z,963.96
2016-10-13T01:03:43.400Z,963.94
2016-10-13T01:04:43.360Z,963.95
2016-10-13T01:05:43.321Z,963.94
2016-10-13T01:06:43.281Z,963.92
2016-10-13T01:07:43.240Z,963.87
2016-10-13T01:08:43.202Z,963.92
2016-10-13T01:09:43.161Z,963.9
2016-10-13T01:10:43.119Z,963.9
2016-10-13T01:11:43.080Z,963.92
2016-10-13T01:12:43.038Z,963.97
2016-10-13T01:13:43.000Z,963.94
2016-10-13T01:14:42.959Z,963.92
2016-10-13T01:15:42.920Z,963.91
2016-10-13T01:16:42.881Z,963.92
2016-10-13T01:17:42.838Z,963.87
2016-10-13T01:18:42.797Z,963.92
2016-10-13T01:19:42.757Z,963.9
2016-10-13T01:20:42.718Z,963.85
2016-10-13T01:21:42.679Z,963.91
2016-10-13T01:22:42.638Z,963.88
2016-10-13T01:23:42.598Z,963.92
2016-10-13T01:24:42.558Z,963.94
2016-10-13T01:25:42.515Z,963.92
2016-10-13T01:26:42.475Z,963.94
2016-10-13T01:27:42.435Z,963.93
2016-10-13T01:28:42.396Z,963.93
2016-10-13T01:29:42.355Z,963.94
2016-10-13T01:30:42.314Z,963.95
2016-10-13T01:31:42.277Z,963.95
2016-10-13T01:32:42.237Z,963.89
2016-10-13T01:33:42.195Z,963.87
2016-10-13T01:34:42.155Z,963.83
2016-10-13T01:35:42.115Z,963.75
2016-10-13T01:36:42.073Z,963.71
2016-10-13T01:37:42.048Z,963.69
2016-10-13T01:38:41.994Z,963.71
2016-10-13T01:39:41.953Z,963.63
2016-10-13T01:40:41.924Z,963.64
2016-10-13T01:41:41.874Z,963.66
2016-10-13T01:42:41.833Z,963.61
2016-10-13T01:43:41.792Z,963.58
2016-10-13T01:44:41.752Z,963.56
2016-10-13T01:45:41.712Z,963.58
2016-10-13T01:46:41.673Z,963.58
2016-10-13T01:47:41.631Z,963.51
2016-10-13T01:48:41.591Z,963.52
2016-10-13T01:49:41.552Z,963.53
2016-10-13T01:50:41.510Z,963.48
2016-10-13T01:51:41.476Z,963.47
2016-10-13T01:52:41.430Z,963.49
2016-10-13T01:53:41.391Z,963.46
2016-10-13T01:54:41.350Z,963.46
2016-10-13T01:55:41.316Z,963.41
2016-10-13T01:56:41.268Z,963.38
2016-10-13T01:57:41.229Z,963.39
2016-10-13T01:58:41.188Z,963.41
2016-10-13T01:59:41.147Z,963.44
2016-10-13T02:00:41.106Z,963.37
2016-10-13T02:01:41.069Z,963.36
2016-10-13T02:02:41.026Z,963.38
2016-10-13T02:03:40.986Z,963.33
2016-10-13T02:04:40.946Z,963.35
2016-10-13T02:05:40.906Z,963.36
2016-10-13T02:06:40.865Z,963.38
2016-10-13T02:07:40.826Z,963.4
2016-10-13T02:08:40.785Z,963.34
2016-10-13T02:09:40.743Z,963.37
2016-10-13T02:10:40.703Z,963.34
2016-10-13T02:11:40.666Z,963.31
2016-10-13T02:12:40.623Z,963.37
2016-10-13T02:13:40.583Z,963.4
2016-10-13T02:14:40.543Z,963.31
2016-10-13T02:15:40.507Z,963.37
2016-10-13T02:16:40.462Z,963.39
2016-10-13T02:17:40.421Z,963.41
2016-10-13T02:18:40.383Z,963.39
2016-10-13T02:19:40.344Z,963.37
2016-10-13T02:20:40.314Z,963.42
2016-10-13T02:21:40.259Z,963.44
2016-10-13T02:22:40.220Z,963.45
2016-10-13T02:23:40.181Z,963.45
2016-10-13T02:24:40.139Z,963.47
2016-10-13T02:25:40.099Z,963.48
2016-10-13T02:26:40.058Z,963.45
2016-10-13T02:27:40.018Z,963.43
2016-10-13T02:28:39.978Z,963.48
2016-10-13T02:29:39.938Z,963.43
2016-10-13T02:30:39.897Z,963.44
2016-10-13T02:31:39.857Z,963.42
2016-10-13T02:32:39.816Z,963.38
2016-10-13T02:33:39.776Z,963.37
2016-10-13T02:34:39.735Z,963.36
2016-10-13T02:35:39.697Z,963.37
2016-10-13T02:36:39.654Z,963.35
2016-10-13T02:37:39.615Z,963.33
2016-10-13T02:38:39.574Z,963.32
2016-10-13T02:39:39.533Z,963.28
2016-10-13T02:40:39.496Z,963.33
2016-10-13T02:41:39.453Z,963.33
2016-10-13T02:42:39.413Z,963.37
2016-10-13T02:43:39.374Z,963.33
2016-10-13T02:44:39.334Z,963.25
2016-10-13T02:45:39.292Z,963.22
2016-10-13T02:46:39.253Z,963.27
2016-10-13T02:47:39.212Z,963.25
2016-10-13T02:48:39.172Z,963.28
2016-10-13T02:49:39.131Z,963.19
2016-10-13T02:50:39.090Z,963.21
2016-10-13T02:51:39.051Z,963.23
2016-10-13T02:52:39.009Z,963.21
2016-10-13T02:53:38.969Z,963.24
2016-10-13T02:54:38.928Z,963.22
2016-10-13T02:55:38.888Z,963.26
2016-10-13T02:56:38.849Z,963.24
2016-10-13T02:57:38.807Z,963.16
2016-10-13T02:58:38.767Z,963.14
2016-10-13T02:59:38.727Z,963.14
2016-10-13T03:00:38.686Z,963.19
2016-10-13T03:01:38.648Z,963.14
2016-10-13T03:02:38.606Z,963.12
2016-10-13T03:03:38.566Z,963.09
2016-10-13T03:04:38.527Z,963.12
2016-10-13T03:05:38.486Z,963.12
2016-10-13T03:06:38.446Z,963.1
2016-10-13T03:07:38.404Z,963.06
2016-10-13T03:08:38.364Z,963.03
2016-10-13T03:09:38.325Z,963.02
2016-10-13T03:10:38.283Z,962.98
2016-10-13T03:11:38.243Z,962.98
2016-10-13T03:12:38.203Z,962.96
2016-10-13T03:13:38.163Z,962.93
2016-10-13T03:14:38.121Z,962.94
2016-10-13T03:15:38.081Z,962.97
2016-10-13T03:16:38.041Z,963
2016-10-13T03:17:38.001Z,963.01
2016-10-13T03:18:37.959Z,963.03
2016-10-13T03:19:37.921Z,962.99
2016-10-13T03:20:37.879Z,963
2016-10-13T03:21:37.841Z,963
2016-10-13T03:22:37.798Z,962.96
2016-10-13T03:23:37.759Z,962.97
2016-10-13T03:24:37.719Z,962.94
2016-10-13T03:25:37.679Z,962.9
2016-10-13T03:26:37.638Z,962.9
2016-10-13T03:27:37.597Z,962.94
2016-10-13T03:28:37.556Z,962.92
2016-10-13T03:29:37.516Z,962.97
2016-10-13T03:30:37.475Z,962.94
2016-10-13T03:31:37.436Z,962.94
2016-10-13T03:32:37.395Z,962.92
2016-10-13T03:33:37.355Z,962.89
2016-10-13T03:34:37.313Z,962.92
2016-10-13T03:35:37.275Z,962.91
2016-10-13T03:36:37.236Z,962.91
2016-10-13T03:37:37.192Z,962.95
2016-10-13T03:38:37.152Z,962.92
2016-10-13T03:39:37.112Z,962.92
2016-10-13T03:40:37.071Z,962.9
2016-10-13T03:41:37.031Z,962.9
2016-10-13T03:42:36.990Z,962.92
2016-10-13T03:43:36.950Z,963.01
2016-10-13T03:44:36.909Z,963.05
2016-10-13T03:45:36.868Z,962.98
2016-10-13T03:46:36.828Z,962.99
2016-10-13T03:47:36.787Z,963.02
2016-10-13T03:48:36.748Z,962.97
2016-10-13T03:49:36.708Z,963
2016-10-13T03:50:36.668Z,963.05
2016-10-13T03:51:36.626Z,963.02
2016-10-13T03:52:36.586Z,963.02
2016-10-13T03:53:36.545Z,963
2016-10-13T03:54:36.505Z,962.99
2016-10-13T03:55:36.463Z,962.98
2016-10-13T03:56:36.424Z,962.98
2016-10-13T03:57:36.383Z,962.96
2016-10-13T03:58:36.342Z,962.95
2016-10-13T03:59:36.303Z,962.9
2016-10-13T04:00:36.264Z,962.93
2016-10-13T04:01:36.223Z,962.9
2016-10-13T04:02:36.181Z,962.91
2016-10-13T04:03:36.144Z,962.92
2016-10-13T04:04:36.100Z,962.93
2016-10-13T04:05:36.061Z,962.93
2016-10-13T04:06:36.020Z,962.95
2016-10-13T04:07:35.978Z,962.98
2016-10-13T04:08:35.939Z,962.95
2016-10-13T04:09:35.901Z,962.94
2016-10-13T04:10:35.856Z,962.96
2016-10-13T04:11:35.817Z,962.95
2016-10-13T04:12:35.777Z,962.98
2016-10-13T04:13:35.735Z,962.97
2016-10-13T04:14:35.695Z,963
2016-10-13T04:15:35.658Z,962.97
2016-10-13T04:16:35.614Z,962.95
2016-10-13T04:17:35.574Z,962.91
2016-10-13T04:18:35.533Z,962.95
2016-10-13T04:19:35.492Z,962.97
2016-10-13T04:20:35.451Z,962.99
2016-10-13T04:21:35.411Z,962.96
2016-10-13T04:22:35.371Z,962.92
2016-10-13T04:23:35.332Z,962.9
2016-10-13T04:24:35.289Z,962.9
2016-10-13T04:25:35.250Z,962.88
2016-10-13T04:26:35.208Z,962.89
2016-10-13T04:27:35.168Z,962.87
2016-10-13T04:28:35.128Z,962.88
2016-10-13T04:29:35.086Z,962.86
2016-10-13T04:30:35.049Z,962.86
2016-10-13T04:31:35.005Z,962.85
2016-10-13T04:32:34.965Z,962.84
2016-10-13T04:33:34.925Z,962.86
2016-10-13T04:34:34.885Z,962.82
2016-10-13T04:35:34.843Z,962.81
2016-10-13T04:36:34.803Z,962.77
2016-10-13T04:37:34.762Z,962.77
2016-10-13T04:38:34.722Z,962.81
2016-10-13T04:39:34.684Z,962.76
2016-10-13T04:40:34.644Z,962.76
2016-10-13T04:41:34.602Z,962.76
2016-10-13T04:42:34.560Z,962.76
2016-10-13T04:43:34.518Z,962.75
2016-10-13T04:44:34.479Z,962.72
2016-10-13T04:45:34.440Z,962.81
2016-10-13T04:46:34.398Z,962.81
2016-10-13T04:47:34.358Z,962.79
2016-10-13T04:48:34.317Z,962.82
2016-10-13T04:49:34.275Z,962.75
2016-10-13T04:50:34.236Z,962.7
2016-10-13T04:51:34.194Z,962.71
2016-10-13T04:52:34.156Z,962.71
2016-10-13T04:53:34.115Z,962.67
2016-10-13T04:54:34.073Z,962.66
2016-10-13T04:55:34.033Z,962.63
2016-10-13T04:56:33.992Z,962.65
2016-10-13T04:57:33.951Z,962.59
2016-10-13T04:58:33.910Z,962.63
2016-10-13T04:59:33.870Z,962.61
2016-10-13T05:00:33.828Z,962.57
2016-10-13T05:01:33.789Z,962.57
2016-10-13T05:02:33.749Z,962.59
2016-10-13T05:03:33.708Z,962.58
2016-10-13T05:04:33.667Z,962.57
2016-10-13T05:05:33.625Z,962.5
2016-10-13T05:06:33.586Z,962.5
2016-10-13T05:07:33.545Z,962.47
2016-10-13T05:08:33.503Z,962.52
2016-10-13T05:09:33.463Z,962.5
2016-10-13T05:10:33.423Z,962.44
2016-10-13T05:11:33.382Z,962.48
2016-10-13T05:12:33.341Z,962.52
2016-10-13T05:13:33.300Z,962.51
2016-10-13T05:14:33.260Z,962.51
2016-10-13T05:15:33.219Z,962.52
2016-10-13T05:16:33.180Z,962.46
2016-10-13T05:17:33.138Z,962.48
2016-10-13T05:18:33.096Z,962.48
2016-10-13T05:19:33.058Z,962.46
2016-10-13T05:20:33.017Z,962.44
2016-10-13T05:21:32.978Z,962.48
2016-10-13T05:22:32.936Z,962.47
2016-10-13T05:23:32.894Z,962.53
2016-10-13T05:24:32.855Z,962.48
2016-10-13T05:25:32.815Z,962.54
2016-10-13T05:26:32.774Z,962.53
2016-10-13T05:27:32.733Z,962.48
2016-10-13T05:28:32.693Z,962.51
2016-10-13T05:29:32.655Z,962.48
2016-10-13T05:30:32.613Z,962.48
2016-10-13T05:31:32.570Z,962.44
2016-10-13T05:32:32.532Z,962.45
2016-10-13T05:33:32.495Z,962.43
2016-10-13T05:34:32.449Z,962.4
2016-10-13T05:35:32.409Z,962.45
2016-10-13T05:36:32.367Z,962.4
2016-10-13T05:37:32.327Z,962.34
2016-10-13T05:38:32.284Z,962.32
2016-10-13T05:39:32.247Z,962.26
2016-10-13T05:40:32.207Z,962.25
2016-10-13T05:41:32.166Z,962.26
2016-10-13T05:42:32.126Z,962.26
2016-10-13T05:43:32.085Z,962.27
2016-10-13T05:44:32.043Z,962.25
2016-10-13T05:45:32.004Z,962.26
2016-10-13T05:46:31.962Z,962.29
2016-10-13T05:47:31.922Z,962.26
2016-10-13T05:48:31.880Z,962.26
2016-10-13T05:49:31.840Z,962.26
2016-10-13T05:50:31.800Z,962.3
2016-10-13T05:51:31.765Z,962.3
2016-10-13T05:52:31.719Z,962.31
2016-10-13T05:53:31.679Z,962.36
2016-10-13T05:54:31.639Z,962.38
2016-10-13T05:55:31.597Z,962.39
2016-10-13T05:56:31.557Z,962.42
2016-10-13T05:57:31.517Z,962.41
2016-10-13T05:58:31.478Z,962.42
2016-10-13T05:59:31.436Z,962.45
2016-10-13T06:00:31.396Z,962.41
2016-10-13T06:01:31.356Z,962.43
2016-10-13T06:02:31.317Z,962.44
2016-10-13T06:03:31.274Z,962.47
2016-10-13T06:04:31.235Z,962.46
2016-10-13T06:05:31.195Z,962.46
2016-10-13T06:06:31.152Z,962.48
2016-10-13T06:07:31.113Z,962.49
2016-10-13T06:08:31.073Z,962.5
2016-10-13T06:09:31.032Z,962.5
2016-10-13T06:10:30.993Z,962.51
2016-10-13T06:11:30.952Z,962.52
2016-10-13T06:12:30.912Z,962.46
2016-10-13T06:13:30.873Z,962.46
2016-10-13T06:14:30.833Z,962.45
2016-10-13T06:15:30.793Z,962.47
2016-10-13T06:16:30.751Z,962.41
2016-10-13T06:17:30.712Z,962.44
2016-10-13T06:18:30.671Z,962.41
2016-10-13T06:19:30.633Z,962.42
2016-10-13T06:20:30.594Z,962.48
2016-10-13T06:21:30.551Z,962.49
2016-10-13T06:22:30.512Z,962.48
2016-10-13T06:23:30.472Z,962.5
2016-10-13T06:24:30.430Z,962.48
2016-10-13T06:25:30.390Z,962.56
2016-10-13T06:26:30.350Z,962.62
2016-10-13T06:27:30.312Z,962.61
2016-10-13T06:28:30.270Z,962.66
2016-10-13T06:29:30.230Z,962.67
2016-10-13T06:30:30.190Z,962.65
2016-10-13T06:31:30.150Z,962.62
2016-10-13T06:32:30.110Z,962.57
2016-10-13T06:33:30.070Z,962.51
2016-10-13T06:34:30.030Z,962.45
2016-10-13T06:35:29.990Z,962.47
2016-10-13T06:36:29.951Z,962.46
2016-10-13T06:37:29.910Z,962.48
2016-10-13T06:38:29.870Z,962.5
2016-10-13T06:39:29.831Z,962.47
2016-10-13T06:40:29.790Z,962.54
2016-10-13T06:41:29.754Z,962.53
2016-10-13T06:42:29.713Z,962.56
2016-10-13T06:43:29.672Z,962.58
2016-10-13T06:44:29.632Z,962.56
2016-10-13T06:45:29.592Z,962.54
2016-10-13T06:46:29.552Z,962.56
2016-10-13T06:47:29.585Z,962.59
2016-10-13T06:48:29.473Z,962.58
2016-10-13T06:49:29.434Z,962.66
2016-10-13T06:50:29.393Z,962.67
2016-10-13T06:51:29.356Z,962.68
2016-10-13T06:52:29.315Z,962.7
2016-10-13T06:53:29.277Z,962.73
2016-10-13T06:54:29.237Z,962.8
2016-10-13T06:55:29.197Z,962.77
2016-10-13T06:56:29.158Z,962.76
2016-10-13T06:57:29.128Z,962.8
2016-10-13T06:58:29.081Z,962.8
2016-10-13T06:59:29.041Z,962.78
2016-10-13T07:00:29.005Z,962.78
2016-10-13T07:01:28.963Z,962.82
2016-10-13T07:02:28.925Z,962.8
2016-10-13T07:03:28.885Z,962.8
2016-10-13T07:04:28.847Z,962.78
2016-10-13T07:05:28.808Z,962.69
2016-10-13T07:06:28.770Z,962.7
2016-10-13T07:07:28.732Z,962.57
2016-10-13T07:08:28.692Z,962.61
2016-10-13T07:09:28.654Z,962.55
2016-10-13T07:10:28.617Z,962.58
2016-10-13T07:11:28.581Z,962.61
2016-10-13T07:12:28.539Z,962.64
2016-10-13T07:13:28.503Z,962.67
2016-10-13T07:14:28.466Z,962.7
2016-10-13T07:15:28.429Z,962.72
2016-10-13T07:16:28.390Z,962.78
2016-10-13T07:17:28.354Z,962.77
2016-10-13T07:18:28.319Z,962.78
2016-10-13T07:19:28.281Z,962.78
2016-10-13T07:20:28.243Z,962.8
2016-10-13T07:21:28.207Z,962.75
2016-10-13T07:22:28.173Z,962.79
2016-10-13T07:23:28.135Z,962.78
2016-10-13T07:24:28.099Z,962.8
2016-10-13T07:25:28.062Z,962.77
2016-10-13T07:26:28.029Z,962.8
2016-10-13T07:27:27.992Z,962.91
2016-10-13T07:28:27.960Z,962.84
2016-10-13T07:29:27.923Z,962.8
2016-10-13T07:30:27.888Z,962.77
2016-10-13T07:31:27.856Z,962.77
2016-10-13T07:32:27.821Z,962.74
2016-10-13T07:33:27.787Z,962.7
2016-10-13T07:34:27.752Z,962.68
2016-10-13T07:35:27.720Z,962.71
2016-10-13T07:36:27.687Z,962.71
2016-10-13T07:37:27.654Z,962.71
2016-10-13T07:38:27.621Z,962.7
2016-10-13T07:39:27.587Z,962.63
2016-10-13T07:40:27.556Z,962.68
2016-10-13T07:41:27.521Z,962.6
2016-10-13T07:42:27.491Z,962.62
2016-10-13T07:43:27.456Z,962.62
2016-10-13T07:44:27.424Z,962.63
2016-10-13T07:45:27.389Z,962.66
2016-10-13T07:46:27.357Z,962.62
2016-10-13T07:47:27.327Z,962.6
2016-10-13T07:48:27.292Z,962.59
2016-10-13T07:49:27.259Z,962.6
2016-10-13T07:50:27.230Z,962.57
2016-10-13T07:51:27.193Z,962.65
2016-10-13T07:52:27.160Z,962.59
2016-10-13T07:53:27.125Z,962.61
2016-10-13T07:54:27.091Z,962.6
2016-10-13T07:55:27.059Z,962.6
2016-10-13T07:56:27.026Z,962.62
2016-10-13T07:57:26.992Z,962.59
2016-10-13T07:58:26.960Z,962.59
2016-10-13T07:59:26.924Z,962.61
2016-10-13T08:00:26.890Z,962.6
2016-10-13T08:01:26.857Z,962.64
2016-10-13T08:02:26.823Z,962.65
2016-10-13T08:03:26.787Z,962.66
2016-10-13T08:04:26.754Z,962.64
2016-10-13T08:05:26.720Z,962.65
2016-10-13T08:06:26.687Z,962.66
2016-10-13T08:07:26.655Z,962.67
2016-10-13T08:08:26.620Z,962.71
2016-10-13T08:09:26.586Z,962.7
2016-10-13T08:10:26.552Z,962.68
2016-10-13T08:11:26.518Z,962.68
2016-10-13T08:12:26.484Z,962.7
2016-10-13T08:13:26.449Z,962.76
2016-10-13T08:14:26.416Z,962.74
2016-10-13T08:15:26.383Z,962.7
2016-10-13T08:16:26.350Z,962.75
2016-10-13T08:17:26.315Z,962.75
2016-10-13T08:18:26.282Z,962.74
2016-10-13T08:19:26.248Z,962.75
2016-10-13T08:20:26.216Z,962.69
2016-10-13T08:21:26.181Z,962.68
2016-10-13T08:22:26.148Z,962.71
2016-10-13T08:23:26.114Z,962.7
2016-10-13T08:24:26.082Z,962.66
2016-10-13T08:25:26.050Z,962.68
2016-10-13T08:26:26.017Z,962.65
2016-10-13T08:27:25.982Z,962.59
2016-10-13T08:28:25.950Z,962.63
2016-10-13T08:29:25.913Z,962.68
2016-10-13T08:30:25.881Z,962.66
2016-10-13T08:31:25.850Z,962.65
2016-10-13T08:32:25.814Z,962.65
2016-10-13T08:33:25.781Z,962.63
2016-10-13T08:34:25.750Z,962.58
2016-10-13T08:35:25.715Z,962.53
2016-10-13T08:36:25.681Z,962.52
2016-10-13T08:37:25.646Z,962.46
2016-10-13T08:38:25.616Z,962.47
2016-10-13T08:39:25.579Z,962.48
2016-10-13T08:40:25.547Z,962.42
2016-10-13T08:41:25.515Z,962.41
2016-10-13T08:42:25.482Z,962.43
2016-10-13T08:43:25.445Z,962.38
2016-10-13T08:44:25.414Z,962.37
2016-10-13T08:45:25.380Z,962.39
2016-10-13T08:46:25.347Z,962.37
2016-10-13T08:47:25.313Z,962.32
2016-10-13T08:48:25.280Z,962.36
2016-10-13T08:49:25.246Z,962.32
2016-10-13T08:50:25.214Z,962.33
2016-10-13T08:51:25.180Z,962.35
2016-10-13T08:52:25.147Z,962.38
2016-10-13T08:53:25.113Z,962.38
2016-10-13T08:54:25.078Z,962.34
2016-10-13T08:55:25.048Z,962.31
2016-10-13T08:56:25.013Z,962.27
2016-10-13T08:57:24.981Z,962.26
2016-10-13T08:58:24.951Z,962.3
2016-10-13T08:59:24.913Z,962.24
2016-10-13T09:00:24.881Z,962.24
2016-10-13T09:01:24.850Z,962.25
2016-10-13T09:02:24.815Z,962.32
2016-10-13T09:03:24.781Z,962.28
2016-10-13T09:04:24.748Z,962.23
2016-10-13T09:05:24.716Z,962.19
2016-10-13T09:06:24.683Z,962.23
2016-10-13T09:07:24.652Z,962.21
2016-10-13T09:08:24.618Z,962.15
2016-10-13T09:09:24.585Z,962.13
2016-10-13T09:10:24.555Z,962.13
2016-10-13T09:11:24.522Z,962.11
2016-10-13T09:12:24.488Z,962.15
2016-10-13T09:13:24.456Z,962.11
2016-10-13T09:14:24.426Z,962.08
2016-10-13T09:15:24.392Z,962.08
2016-10-13T09:16:24.362Z,962.04
2016-10-13T09:17:24.328Z,962.01
2016-10-13T09:18:24.298Z,961.98
2016-10-13T09:19:24.266Z,961.95
2016-10-13T09:20:24.233Z,961.98
2016-10-13T09:21:24.202Z,962
2016-10-13T09:22:24.170Z,962.04
2016-10-13T09:23:24.140Z,962.08
2016-10-13T09:24:24.108Z,961.97
2016-10-13T09:25:24.078Z,961.94
2016-10-13T09:26:24.048Z,961.95
2016-10-13T09:27:24.015Z,961.96
2016-10-13T09:28:23.986Z,962.01
2016-10-13T09:29:23.955Z,962.03
2016-10-13T09:30:23.924Z,962.01
2016-10-13T09:31:23.894Z,962.03
2016-10-13T09:32:23.863Z,962.03
2016-10-13T09:33:23.836Z,962.03
2016-10-13T09:34:23.804Z,962.01
2016-10-13T09:35:23.774Z,962.03
2016-10-13T09:36:23.745Z,961.99
2016-10-13T09:37:23.714Z,961.95
2016-10-13T09:38:23.684Z,961.95
2016-10-13T09:39:23.654Z,961.99
2016-10-13T09:40:23.623Z,961.98
2016-10-13T09:41:23.594Z,962.02
2016-10-13T09:42:23.564Z,961.98
2016-10-13T09:43:23.535Z,961.98
2016-10-13T09:44:23.505Z,961.99
2016-10-13T09:45:23.476Z,961.96
2016-10-13T09:46:23.449Z,962.02
2016-10-13T09:47:23.418Z,961.99
2016-10-13T09:48:23.389Z,961.96
2016-10-13T09:49:23.361Z,961.96
2016-10-13T09:50:23.332Z,961.95
2016-10-13T09:51:23.304Z,961.9
2016-10-13T09:52:23.273Z,961.88
2016-10-13T09:53:23.245Z,961.86
2016-10-13T09:54:23.216Z,961.88
2016-10-13T09:55:23.187Z,961.86
2016-10-13T09:56:23.158Z,961.83
2016-10-13T09:57:23.131Z,961.86
2016-10-13T09:58:23.103Z,961.89
2016-10-13T09:59:23.075Z,961.91
2016-10-13T10:00:23.050Z,961.92
2016-10-13T10:01:23.018Z,961.92
2016-10-13T10:02:22.990Z,961.96
2016-10-13T10:03:22.964Z,961.96
2016-10-13T10:04:22.933Z,961.98
2016-10-13T10:05:22.905Z,961.99
2016-10-13T10:06:22.877Z,961.98
2016-10-13T10:07:22.848Z,961.99
2016-10-13T10:08:22.819Z,962.01
2016-10-13T10:09:22.792Z,961.99
2016-10-13T10:10:22.766Z,961.97
2016-10-13T10:11:22.736Z,961.94
2016-10-13T10:12:22.709Z,961.86
2016-10-13T10:13:22.681Z,961.83
2016-10-13T10:14:22.653Z,961.79
2016-10-13T10:15:22.625Z,961.78
2016-10-13T10:16:22.597Z,961.81
2016-10-13T10:17:22.569Z,961.88
2016-10-13T10:18:22.541Z,961.78
2016-10-13T10:19:22.512Z,961.8
2016-10-13T10:20:22.485Z,961.77
2016-10-13T10:21:22.456Z,961.69
2016-10-13T10:22:22.428Z,961.67
2016-10-13T10:23:22.399Z,961.61
2016-10-13T10:24:22.372Z,961.55
2016-10-13T10:25:22.343Z,961.52
2016-10-13T10:26:22.311Z,961.5
2016-10-13T10:27:22.286Z,961.42
2016-10-13T10:28:22.258Z,961.42
2016-10-13T10:29:22.227Z,961.43
2016-10-13T10:30:22.199Z,961.4
2016-10-13T10:31:22.171Z,961.42
2016-10-13T10:32:22.140Z,961.37
2016-10-13T10:33:22.111Z,961.36
2016-10-13T10:34:22.082Z,961.35
2016-10-13T10:35:22.054Z,961.35
2016-10-13T10:36:22.023Z,961.29
2016-10-13T10:37:21.995Z,961.34
2016-10-13T10:38:21.965Z,961.34
2016-10-13T10:39:21.936Z,961.26
2016-10-13T10:40:21.906Z,961.25
2016-10-13T10:41:21.875Z,961.29
2016-10-13T10:42:21.848Z,961.21
2016-10-13T10:43:21.817Z,961.2
2016-10-13T10:44:21.788Z,961.16
2016-10-13T10:45:21.757Z,961.11
2016-10-13T10:46:21.728Z,961.1
2016-10-13T10:47:21.699Z,961.05
2016-10-13T10:48:21.667Z,961.09
2016-10-13T10:49:21.635Z,961.03
2016-10-13T10:50:21.603Z,961.03
2016-10-13T10:51:21.573Z,961
2016-10-13T10:52:21.541Z,960.96
2016-10-13T10:53:21.510Z,960.92
2016-10-13T10:54:21.481Z,960.93
2016-10-13T10:55:21.447Z,960.9
2016-10-13T10:56:21.416Z,960.92
2016-10-13T10:57:21.384Z,960.98
2016-10-13T10:58:21.354Z,960.94
2016-10-13T10:59:21.321Z,960.92
2016-10-13T11:00:21.290Z,960.9
2016-10-13T11:01:21.258Z,960.89
2016-10-13T11:02:21.224Z,960.86
2016-10-13T11:03:21.194Z,960.9
2016-10-13T11:04:21.160Z,960.84
2016-10-13T11:05:21.128Z,960.78
2016-10-13T11:06:21.096Z,960.74
2016-10-13T11:07:21.065Z,960.73
2016-10-13T11:08:21.031Z,960.72
2016-10-13T11:09:20.999Z,960.78
2016-10-13T11:10:20.966Z,960.82
2016-10-13T11:11:20.936Z,960.84
2016-10-13T11:12:20.902Z,960.87
2016-10-13T11:13:20.870Z,960.85
2016-10-13T11:14:20.836Z,960.93
2016-10-13T11:15:20.804Z,960.91
2016-10-13T11:16:20.770Z,960.88
2016-10-13T11:17:20.737Z,960.88
2016-10-13T11:18:20.703Z,960.83
2016-10-13T11:19:20.674Z,960.76
2016-10-13T11:20:20.637Z,960.76
2016-10-13T11:21:20.607Z,960.73
2016-10-13T11:22:20.572Z,960.76
2016-10-13T11:23:20.539Z,960.78
2016-10-13T11:24:20.507Z,960.82
2016-10-13T11:25:20.475Z,960.84
2016-10-13T11:26:20.440Z,960.81
2016-10-13T11:27:20.407Z,960.78
2016-10-13T11:28:20.374Z,960.75
2016-10-13T11:29:20.341Z,960.62
2016-10-13T11:30:20.307Z,960.58
2016-10-13T11:31:20.273Z,960.58
2016-10-13T11:32:20.240Z,960.58
2016-10-13T11:33:20.206Z,960.57
2016-10-13T11:34:20.174Z,960.63
2016-10-13T11:35:20.139Z,960.67
2016-10-13T11:36:20.106Z,960.71
2016-10-13T11:37:20.075Z,960.71
2016-10-13T11:38:20.038Z,960.76
2016-10-13T11:39:20.005Z,960.75
2016-10-13T11:40:19.971Z,960.79
2016-10-13T11:41:19.939Z,960.79
2016-10-13T11:42:19.905Z,960.78
2016-10-13T11:43:19.870Z,960.8
2016-10-13T11:44:19.837Z,960.85
2016-10-13T11:45:19.807Z,960.78
2016-10-13T11:46:19.771Z,960.74
2016-10-13T11:47:19.738Z,960.7
2016-10-13T11:48:19.704Z,960.74
2016-10-13T11:49:19.672Z,960.72
2016-10-13T11:50:19.635Z,960.7
2016-10-13T11:51:19.603Z,960.67
2016-10-13T11:52:19.569Z,960.65
2016-10-13T11:53:19.535Z,960.67
2016-10-13T11:54:19.502Z,960.64
2016-10-13T11:55:19.469Z,960.62
2016-10-13T11:56:19.434Z,960.58
2016-10-13T11:57:19.401Z,960.58
2016-10-13T11:58:19.367Z,960.54
2016-10-13T11:59:19.335Z,960.54
2016-10-13T12:00:19.301Z,960.57
2016-10-13T12:01:19.267Z,960.52
2016-10-13T12:02:19.234Z,960.56
2016-10-13T12:03:19.200Z,960.56
2016-10-13T12:04:19.167Z,960.52
2016-10-13T12:05:19.133Z,960.53
2016-10-13T12:06:19.101Z,960.55
2016-10-13T12:07:19.065Z,960.52
2016-10-13T12:08:19.031Z,960.51
2016-10-13T12:09:18.999Z,960.49
2016-10-13T12:10:18.966Z,960.51
2016-10-13T12:11:18.931Z,960.48
2016-10-13T12:12:18.897Z,960.49
2016-10-13T12:13:18.864Z,960.43
2016-10-13T12:14:18.831Z,960.41
2016-10-13T12:15:18.795Z,960.4
2016-10-13T12:16:18.762Z,960.46
2016-10-13T12:17:18.728Z,960.37
2016-10-13T12:18:18.697Z,960.36
2016-10-13T12:19:18.662Z,960.29
2016-10-13T12:20:18.627Z,960.36
2016-10-13T12:21:18.594Z,960.39
2016-10-13T12:22:18.560Z,960.35
2016-10-13T12:23:18.525Z,960.33
2016-10-13T12:24:18.492Z,960.3
2016-10-13T12:25:18.457Z,960.31
2016-10-13T12:26:18.422Z,960.3
2016-10-13T12:27:18.388Z,960.31
2016-10-13T12:28:18.355Z,960.28
2016-10-13T12:29:18.319Z,960.2
2016-10-13T12:30:18.284Z,960.2
2016-10-13T12:31:18.250Z,960.18